Time;durP1;ratioP1;P1;durP2;ratioP2;P2;SDS_P1;SDS_P2;PMS_P1;PMS_P2;Temp;Humidity;BMP_temperature;BMP_pressure;BME280_temperature;BME280_humidity;BME280_pressure;Samples;Min_cycle;Max_cycle;Signal;HPM_P1;HPM_P2
2023/08/10 00:01:29;;;;;;;2.33;1.80;;;23.10;65.90;;;;;;6122739;28;80894;-59
2023/08/10 00:04:30;;;;;;;3.03;2.00;;;23.10;65.80;;;;;;6126428;28;81800;-60
2023/08/10 00:07:30;;;;;;;4.78;1.77;;;23.10;65.90;;;;;;6126410;28;80356;-60
2023/08/10 00:10:31;;;;;;;3.33;1.95;;;23.00;65.90;;;;;;6125835;28;80975;-60
2023/08/10 00:13:31;;;;;;;3.88;2.03;;;23.00;65.90;;;;;;6140412;28;80793;-59
2023/08/10 00:16:32;;;;;;;2.55;1.92;;;23.00;66.10;;;;;;6128063;28;80928;-58
2023/08/10 00:19:32;;;;;;;3.42;1.73;;;23.00;66.10;;;;;;6127911;28;81088;-58
2023/08/10 00:22:33;;;;;;;2.28;1.65;;;23.00;65.90;;;;;;6126673;28;81059;-59
2023/08/10 00:25:33;;;;;;;2.00;1.70;;;23.00;65.90;;;;;;6125084;28;80585;-58
2023/08/10 00:28:34;;;;;;;7.53;2.30;;;23.00;66.00;;;;;;6125533;28;80437;-56
2023/08/10 00:31:35;;;;;;;2.08;1.85;;;23.00;66.00;;;;;;6133093;28;80767;-56
2023/08/10 00:34:35;;;;;;;3.45;2.15;;;23.00;66.00;;;;;;6115998;28;82640;-56
2023/08/10 00:37:36;;;;;;;3.85;1.95;;;23.00;66.10;;;;;;6127429;28;83851;-54
2023/08/10 00:40:36;;;;;;;4.38;1.80;;;23.00;66.00;;;;;;6129507;28;80652;-55
2023/08/10 00:43:37;;;;;;;3.65;2.30;;;23.00;65.90;;;;;;6129600;28;80957;-52
2023/08/10 00:46:37;;;;;;;5.25;2.30;;;23.00;66.00;;;;;;6139288;28;81039;-68
2023/08/10 00:49:38;;;;;;;3.83;1.98;;;23.00;66.10;;;;;;6122328;28;80923;-67
2023/08/10 00:52:39;;;;;;;2.15;1.80;;;23.00;66.10;;;;;;6137482;28;80571;-67
2023/08/10 00:55:39;;;;;;;4.43;2.25;;;23.00;66.10;;;;;;6117705;28;86321;-71
2023/08/10 00:58:40;;;;;;;3.25;2.03;;;23.00;66.10;;;;;;6144327;28;80427;-72
2023/08/10 01:01:40;;;;;;;2.50;1.77;;;23.00;66.10;;;;;;6144305;28;86120;-72
2023/08/10 01:04:41;;;;;;;3.03;2.35;;;23.00;66.10;;;;;;6140777;28;80557;-72
2023/08/10 01:07:41;;;;;;;2.55;1.88;;;23.00;66.00;;;;;;6116666;28;80681;-73
2023/08/10 01:10:42;;;;;;;7.05;2.33;;;23.00;66.00;;;;;;6121440;28;79981;-71
2023/08/10 01:13:42;;;;;;;2.33;1.83;;;23.00;65.90;;;;;;6130133;28;82348;-73
2023/08/10 01:16:43;;;;;;;4.47;2.20;;;23.00;66.60;;;;;;6155178;28;80685;-69
2023/08/10 01:19:43;;;;;;;4.72;2.20;;;23.00;66.10;;;;;;6130882;28;80542;-68
2023/08/10 01:22:44;;;;;;;2.85;2.08;;;23.00;66.20;;;;;;6128928;28;80719;-67
2023/08/10 01:25:44;;;;;;;3.83;2.28;;;23.00;66.30;;;;;;6142098;28;80051;-70
2023/08/10 01:28:45;;;;;;;3.15;2.17;;;23.00;66.20;;;;;;6141526;28;80615;-70
2023/08/10 01:31:46;;;;;;;4.22;2.17;;;23.00;66.10;;;;;;6127982;28;83937;-70
2023/08/10 01:34:46;;;;;;;3.85;2.20;;;23.00;66.20;;;;;;6117095;28;80136;-69
2023/08/10 01:37:47;;;;;;;6.20;2.72;;;23.00;66.10;;;;;;6129177;28;80096;-69
2023/08/10 01:40:47;;;;;;;7.35;2.83;;;23.00;66.10;;;;;;6121347;28;81190;-63
2023/08/10 01:43:48;;;;;;;3.80;2.00;;;23.00;66.10;;;;;;6118112;28;82121;-63
2023/08/10 01:46:49;;;;;;;5.53;3.08;;;23.00;66.00;;;;;;6103047;28;81467;-62
2023/08/10 01:49:49;;;;;;;3.28;2.65;;;23.00;65.90;;;;;;6112082;28;80668;-62
2023/08/10 01:52:50;;;;;;;2.67;2.13;;;23.00;65.90;;;;;;6120797;28;80958;-62
2023/08/10 01:55:51;;;;;;;2.83;2.20;;;23.00;66.10;;;;;;6104885;28;80583;-63
2023/08/10 01:58:52;;;;;;;3.63;2.72;;;23.00;66.10;;;;;;6115241;28;83381;-67
2023/08/10 02:01:52;;;;;;;4.28;2.63;;;23.00;66.00;;;;;;6119882;28;81703;-66
2023/08/10 02:04:53;;;;;;;4.85;2.60;;;23.00;66.10;;;;;;6126933;28;80753;-67
2023/08/10 02:07:55;;;;;;;4.75;2.42;;;23.00;66.10;;;;;;6109791;28;83627;-65
2023/08/10 02:10:55;;;;;;;4.22;2.70;;;23.00;65.90;;;;;;6125958;28;81923;-66
2023/08/10 02:13:56;;;;;;;9.52;2.20;;;23.00;66.00;;;;;;6086229;28;83399;-67
2023/08/10 02:16:56;;;;;;;2.88;2.40;;;23.00;66.10;;;;;;6116038;28;81801;-67
2023/08/10 02:19:57;;;;;;;3.60;2.58;;;22.90;66.00;;;;;;6119999;28;80462;-68
2023/08/10 02:22:57;;;;;;;5.43;2.95;;;23.00;66.00;;;;;;6140373;28;80864;-65
2023/08/10 02:25:58;;;;;;;4.72;3.15;;;22.90;65.90;;;;;;6140142;28;83047;-65
2023/08/10 02:28:58;;;;;;;3.20;2.47;;;22.90;66.00;;;;;;6137198;28;81637;-65
2023/08/10 02:32:00;;;;;;;4.90;3.08;;;23.00;65.90;;;;;;6146132;28;82309;-65
2023/08/10 02:35:01;;;;;;;3.85;2.90;;;23.00;65.90;;;;;;6128543;28;84547;-56
2023/08/10 02:38:01;;;;;;;7.95;2.95;;;23.00;65.90;;;;;;6124375;28;80615;-54
2023/08/10 02:41:02;;;;;;;9.07;3.20;;;22.90;66.00;;;;;;6127616;28;81304;-52
2023/08/10 02:44:02;;;;;;;3.97;2.55;;;23.00;66.00;;;;;;6125269;28;83145;-53
2023/08/10 02:47:03;;;;;;;4.82;3.17;;;23.00;66.00;;;;;;6124157;28;82080;-55
2023/08/10 02:50:05;;;;;;;4.82;2.85;;;22.90;65.90;;;;;;6125842;28;81105;-53
2023/08/10 02:53:06;;;;;;;3.30;2.47;;;22.90;66.70;;;;;;6129429;28;80720;-58
2023/08/10 02:56:06;;;;;;;5.93;3.13;;;22.90;66.20;;;;;;6135577;28;80413;-57
2023/08/10 02:59:07;;;;;;;3.42;2.63;;;22.90;66.10;;;;;;6135011;28;82308;-59
2023/08/10 03:02:07;;;;;;;5.60;2.95;;;22.90;66.10;;;;;;6127342;28;82050;-58
2023/08/10 03:05:08;;;;;;;3.78;3.00;;;22.90;66.10;;;;;;6127408;28;81649;-58
2023/08/10 03:08:09;;;;;;;4.50;2.90;;;22.90;66.10;;;;;;6123247;28;83226;-58
2023/08/10 03:11:09;;;;;;;3.55;2.65;;;22.90;66.10;;;;;;6127149;28;82275;-58
2023/08/10 03:14:10;;;;;;;4.40;2.67;;;22.90;66.10;;;;;;6105003;28;80748;-58
2023/08/10 03:17:10;;;;;;;11.05;3.50;;;22.90;66.10;;;;;;6111003;28;83384;-58
2023/08/10 03:20:16;;;;;;;6.78;2.90;;;22.90;66.10;;;;;;6128550;28;84369;-58
2023/08/10 03:23:18;;;;;;;4.32;3.40;;;22.90;66.30;;;;;;6170843;28;83246;-58
2023/08/10 03:26:19;;;;;;;6.45;3.65;;;22.90;66.30;;;;;;6129510;28;83785;-57
2023/08/10 03:29:19;;;;;;;4.63;3.40;;;22.90;66.30;;;;;;6129250;28;80670;-54
2023/08/10 03:32:21;;;;;;;3.70;2.72;;;22.90;66.20;;;;;;6128060;28;82295;-56
2023/08/10 03:35:22;;;;;;;4.63;3.10;;;22.90;66.30;;;;;;6109758;28;83488;-56
2023/08/10 03:38:23;;;;;;;3.45;2.78;;;22.90;66.40;;;;;;6125413;28;82746;-58
2023/08/10 03:41:23;;;;;;;4.90;3.40;;;22.90;66.50;;;;;;6128858;28;81749;-57
2023/08/10 03:44:24;;;;;;;6.40;3.25;;;22.90;66.50;;;;;;6120943;28;83222;-58
2023/08/10 03:47:24;;;;;;;4.57;3.30;;;22.90;66.50;;;;;;6129882;28;81624;-57
2023/08/10 03:50:25;;;;;;;8.15;3.42;;;22.90;66.40;;;;;;6140681;28;87697;-57
2023/08/10 03:53:26;;;;;;;5.22;3.70;;;22.90;66.40;;;;;;6148383;28;82004;-56
2023/08/10 03:56:26;;;;;;;5.53;4.00;;;22.90;66.40;;;;;;6129911;28;81309;-55
2023/08/10 03:59:27;;;;;;;5.85;3.80;;;22.90;66.40;;;;;;6129473;28;80832;-57
2023/08/10 04:02:28;;;;;;;4.85;3.47;;;22.90;66.30;;;;;;6123096;28;83304;-56
2023/08/10 04:05:28;;;;;;;6.57;4.05;;;22.90;66.20;;;;;;6109508;28;83044;-56
2023/08/10 04:08:29;;;;;;;5.85;3.90;;;22.90;66.20;;;;;;6113576;28;80764;-57
2023/08/10 04:11:30;;;;;;;6.25;3.65;;;22.90;66.20;;;;;;6122958;28;83594;-55
2023/08/10 04:14:30;;;;;;;5.72;3.78;;;22.90;66.20;;;;;;6103646;28;88532;-55
2023/08/10 04:17:31;;;;;;;6.75;4.28;;;22.80;66.10;;;;;;6105690;28;83280;-57
2023/08/10 04:20:31;;;;;;;7.20;4.18;;;22.90;66.10;;;;;;6115147;28;85531;-57
2023/08/10 04:23:32;;;;;;;7.22;4.25;;;22.90;66.10;;;;;;6123142;28;82708;-56
2023/08/10 04:26:32;;;;;;;7.88;4.30;;;22.90;66.10;;;;;;6122884;28;80676;-57
2023/08/10 04:29:33;;;;;;;6.10;3.92;;;22.90;66.10;;;;;;6124212;28;80113;-54
2023/08/10 04:32:33;;;;;;;8.32;4.65;;;22.90;66.10;;;;;;6126769;28;80508;-55
2023/08/10 04:35:34;;;;;;;8.52;4.53;;;22.90;66.00;;;;;;6122289;28;80920;-57
2023/08/10 04:38:35;;;;;;;6.15;4.10;;;23.00;65.80;;;;;;6126088;28;84838;-55
2023/08/10 04:41:35;;;;;;;7.38;4.85;;;23.00;65.80;;;;;;6116613;28;85092;-54
2023/08/10 04:44:36;;;;;;;6.15;4.22;;;23.00;65.80;;;;;;6117632;28;80772;-55
2023/08/10 04:47:36;;;;;;;5.13;4.20;;;23.00;65.60;;;;;;6123706;28;80651;-53
2023/08/10 04:50:37;;;;;;;5.05;4.07;;;22.90;65.60;;;;;;6129441;28;80327;-56
2023/08/10 04:53:37;;;;;;;7.30;4.43;;;22.90;65.60;;;;;;6127271;28;80381;-56
2023/08/10 04:56:38;;;;;;;6.43;4.45;;;22.90;65.60;;;;;;6124924;28;84979;-56
2023/08/10 04:59:38;;;;;;;7.45;4.25;;;23.00;65.70;;;;;;6124906;28;80983;-54
2023/08/10 05:02:39;;;;;;;6.05;4.80;;;23.00;65.70;;;;;;6125260;28;80605;-53
2023/08/10 05:05:40;;;;;;;9.63;5.10;;;23.00;66.10;;;;;;6124349;28;80436;-53
2023/08/10 05:08:40;;;;;;;7.47;4.43;;;23.00;65.80;;;;;;6113920;28;87762;-59
2023/08/10 05:11:41;;;;;;;9.00;5.07;;;23.00;65.80;;;;;;6107978;28;80699;-58
2023/08/10 05:14:41;;;;;;;10.55;5.03;;;22.90;65.70;;;;;;6104827;28;80736;-57
2023/08/10 05:17:42;;;;;;;9.43;5.32;;;23.00;66.00;;;;;;6120826;28;80965;-58
2023/08/10 05:20:42;;;;;;;6.90;4.57;;;23.00;66.30;;;;;;6139966;28;80798;-53
2023/08/10 05:23:43;;;;;;;10.15;5.28;;;23.00;66.90;;;;;;6104940;28;80563;-53
2023/08/10 05:26:43;;;;;;;5.95;4.78;;;23.00;66.70;;;;;;6116478;28;80798;-52
2023/08/10 05:29:44;;;;;;;6.60;4.97;;;23.00;66.60;;;;;;6128236;28;80455;-51
2023/08/10 05:32:44;;;;;;;10.27;5.32;;;23.00;66.70;;;;;;6120678;28;80658;-53
2023/08/10 05:35:46;;;;;;;7.57;4.40;;;22.90;66.90;;;;;;6125333;28;81393;-54
2023/08/10 05:38:47;;;;;;;13.48;4.53;;;23.00;67.10;;;;;;6124857;28;80571;-57
2023/08/10 05:41:48;;;;;;;9.95;4.63;;;23.00;67.10;;;;;;6124353;28;81177;-58
2023/08/10 05:44:48;;;;;;;9.65;4.68;;;23.00;67.50;;;;;;6122509;28;80489;-58
2023/08/10 05:47:49;;;;;;;8.00;4.57;;;23.00;67.00;;;;;;6126354;28;80225;-56
2023/08/10 05:50:49;;;;;;;10.55;5.18;;;23.00;67.00;;;;;;6117890;28;82376;-58
2023/08/10 05:53:50;;;;;;;7.65;4.78;;;23.10;67.40;;;;;;6117517;28;80904;-57
2023/08/10 05:56:50;;;;;;;11.15;6.10;;;23.00;67.10;;;;;;6117258;28;81712;-65
2023/08/10 05:59:52;;;;;;;7.38;5.40;;;23.10;67.00;;;;;;6115831;28;80356;-66
2023/08/10 06:02:52;;;;;;;14.30;4.85;;;23.00;66.90;;;;;;6116073;28;80799;-66
2023/08/10 06:05:53;;;;;;;6.25;4.55;;;23.00;66.90;;;;;;6120713;28;82906;-66
2023/08/10 06:08:54;;;;;;;7.63;5.13;;;23.00;67.10;;;;;;6116009;28;80205;-65
2023/08/10 06:11:54;;;;;;;6.13;4.65;;;23.00;66.40;;;;;;6107569;28;82592;-66
2023/08/10 06:14:55;;;;;;;8.13;5.25;;;23.10;66.10;;;;;;6129618;28;81153;-64
2023/08/10 06:17:56;;;;;;;11.20;5.85;;;23.10;66.00;;;;;;6133066;28;81762;-65
2023/08/10 06:20:56;;;;;;;7.90;5.53;;;23.00;65.80;;;;;;6130180;28;81485;-65
2023/08/10 06:23:56;;;;;;;7.95;4.93;;;23.10;65.70;;;;;;6132312;28;81429;-66
2023/08/10 06:26:57;;;;;;;12.02;5.90;;;23.00;65.50;;;;;;6124964;28;81760;-66
2023/08/10 06:29:58;;;;;;;11.10;6.00;;;23.00;65.40;;;;;;6122378;28;81489;-66
2023/08/10 06:32:59;;;;;;;9.52;6.40;;;23.00;65.10;;;;;;6108195;28;81755;-65
2023/08/10 06:35:59;;;;;;;7.85;5.80;;;23.00;64.90;;;;;;6115154;28;82070;-66
2023/08/10 06:39:00;;;;;;;9.95;6.53;;;23.00;64.90;;;;;;6120946;28;81745;-64
2023/08/10 06:42:00;;;;;;;7.22;5.68;;;23.00;65.00;;;;;;6122352;28;81375;-63
2023/08/10 06:45:04;;;;;;;7.85;5.45;;;23.00;65.00;;;;;;6152883;28;83385;-66
2023/08/10 06:48:04;;;;;;;6.47;5.20;;;23.00;65.00;;;;;;6125422;28;81676;-64
2023/08/10 06:51:05;;;;;;;8.15;5.72;;;23.00;65.00;;;;;;6121316;28;82928;-64
2023/08/10 06:54:05;;;;;;;6.70;5.18;;;23.00;64.70;;;;;;6125605;28;80890;-70
2023/08/10 06:57:06;;;;;;;13.32;6.40;;;23.00;64.60;;;;;;6122236;28;80510;-62
2023/08/10 07:00:07;;;;;;;9.02;6.20;;;23.00;65.00;;;;;;6120275;28;83658;-64
2023/08/10 07:03:08;;;;;;;15.48;6.32;;;23.00;65.80;;;;;;6122315;28;80833;-62
2023/08/10 07:06:08;;;;;;;9.27;5.50;;;23.10;67.10;;;;;;6119489;28;80197;-70
2023/08/10 07:09:09;;;;;;;9.68;6.45;;;23.10;67.50;;;;;;6103702;28;80891;-65
2023/08/10 07:12:10;;;;;;;12.55;7.07;;;23.10;68.40;;;;;;6104566;28;80794;-62
2023/08/10 07:15:10;;;;;;;10.10;7.95;;;23.20;69.40;;;;;;6135705;28;82334;-65
2023/08/10 07:18:11;;;;;;;10.20;7.22;;;23.10;69.30;;;;;;6130294;28;80699;-64
2023/08/10 07:21:11;;;;;;;8.07;6.47;;;23.10;68.80;;;;;;6127619;28;82210;-65
2023/08/10 07:24:12;;;;;;;9.98;6.80;;;23.10;67.10;;;;;;6122244;28;81763;-66
2023/08/10 07:27:12;;;;;;;12.07;7.57;;;23.10;66.30;;;;;;6105677;28;82517;-66
2023/08/10 07:30:13;;;;;;;9.35;6.43;;;23.10;66.20;;;;;;6105506;28;82671;-49
2023/08/10 07:33:14;;;;;;;8.52;6.20;;;23.20;66.00;;;;;;6120904;28;80570;-54
2023/08/10 07:36:14;;;;;;;19.35;6.75;;;23.20;66.10;;;;;;6120366;28;81205;-55
2023/08/10 07:39:14;;;;;;;12.07;6.53;;;23.20;66.30;;;;;;6128090;28;81157;-55
2023/08/10 07:42:15;;;;;;;11.85;7.18;;;23.30;66.10;;;;;;6110306;28;81050;-58
2023/08/10 07:45:16;;;;;;;9.07;6.45;;;23.20;65.20;;;;;;6119922;28;81812;-57
2023/08/10 07:48:16;;;;;;;10.80;5.85;;;23.30;65.70;;;;;;6114117;28;83102;-57
2023/08/10 07:51:17;;;;;;;10.00;6.28;;;23.20;64.90;;;;;;6109831;28;84358;-58
2023/08/10 07:54:17;;;;;;;7.70;5.50;;;23.20;65.50;;;;;;6117544;28;81915;-56
2023/08/10 07:57:18;;;;;;;8.10;5.85;;;23.20;65.40;;;;;;6126872;28;81822;-56
2023/08/10 08:00:18;;;;;;;7.45;5.95;;;23.20;65.50;;;;;;6130504;28;81482;-58
2023/08/10 08:03:19;;;;;;;7.15;5.47;;;23.30;65.00;;;;;;6129380;28;83847;-59
2023/08/10 08:06:19;;;;;;;9.20;6.65;;;23.30;65.10;;;;;;6132192;28;81638;-55
2023/08/10 08:09:20;;;;;;;12.10;5.95;;;23.30;64.70;;;;;;6129763;28;81848;-51
2023/08/10 08:12:21;;;;;;;12.13;6.05;;;23.30;65.00;;;;;;6131278;28;81606;-55
2023/08/10 08:15:22;;;;;;;8.38;5.88;;;23.40;64.50;;;;;;6122691;28;82011;-55
2023/08/10 08:18:22;;;;;;;9.93;5.32;;;23.40;64.60;;;;;;6115653;28;80667;-49
2023/08/10 08:21:23;;;;;;;8.18;5.43;;;23.40;64.50;;;;;;6144021;28;81602;-49
2023/08/10 08:24:23;;;;;;;18.67;5.65;;;23.40;64.10;;;;;;6126157;28;80841;-52
2023/08/10 08:27:24;;;;;;;7.95;5.10;;;23.40;64.20;;;;;;6128097;28;80391;-54
2023/08/10 08:30:26;;;;;;;8.70;4.90;;;23.40;63.90;;;;;;6119536;28;80537;-49
2023/08/10 08:33:26;;;;;;;9.45;4.65;;;23.40;63.30;;;;;;6122843;28;80364;-54
2023/08/10 08:36:27;;;;;;;11.25;4.68;;;23.40;63.30;;;;;;6121365;28;81143;-54
2023/08/10 08:39:27;;;;;;;7.53;4.95;;;23.50;62.90;;;;;;6123744;28;80568;-55
2023/08/10 08:42:28;;;;;;;6.88;4.22;;;23.50;62.60;;;;;;6121430;28;81524;-50
2023/08/10 08:45:28;;;;;;;6.88;4.20;;;23.50;61.90;;;;;;6133051;28;80440;-49
2023/08/10 08:48:29;;;;;;;9.80;3.67;;;23.50;60.90;;;;;;6126740;28;80348;-49
2023/08/10 08:51:29;;;;;;;9.00;4.10;;;23.50;60.90;;;;;;6122070;28;81352;-52
2023/08/10 08:54:30;;;;;;;7.88;5.05;;;23.50;60.80;;;;;;6108838;28;81719;-49
2023/08/10 08:57:31;;;;;;;11.52;3.88;;;23.50;60.90;;;;;;6111126;28;80442;-52
2023/08/10 09:00:31;;;;;;;6.82;3.53;;;23.20;58.40;;;;;;6123541;28;80570;-53
2023/08/10 09:03:32;;;;;;;4.57;3.22;;;23.20;59.20;;;;;;6140117;28;80474;-57
2023/08/10 09:06:32;;;;;;;16.42;3.95;;;23.10;59.50;;;;;;6127187;28;80801;-52
2023/08/10 09:09:33;;;;;;;12.05;3.80;;;23.30;60.00;;;;;;6104978;28;80310;-52
2023/08/10 09:12:33;;;;;;;11.00;3.28;;;23.30;60.20;;;;;;6109017;28;80542;-48
2023/08/10 09:15:34;;;;;;;11.35;3.63;;;23.40;59.70;;;;;;6122575;28;80992;-56
2023/08/10 09:18:34;;;;;;;8.68;3.25;;;23.50;59.70;;;;;;6124482;28;81720;-59
2023/08/10 09:21:35;;;;;;;5.40;2.60;;;23.50;59.50;;;;;;6127893;28;80465;-58
2023/08/10 09:24:35;;;;;;;8.88;3.65;;;23.50;59.10;;;;;;6121818;28;81092;-56
2023/08/10 09:27:36;;;;;;;10.13;3.88;;;23.60;59.10;;;;;;6119823;28;80965;-57
2023/08/10 09:30:37;;;;;;;3.85;3.00;;;23.60;58.50;;;;;;6109670;28;80679;-56
2023/08/10 09:33:37;;;;;;;4.88;2.80;;;23.60;58.10;;;;;;6126561;28;80877;-56
2023/08/10 09:36:38;;;;;;;4.95;3.03;;;23.60;58.30;;;;;;6101595;28;80445;-53
2023/08/10 09:39:38;;;;;;;4.78;3.00;;;23.60;58.60;;;;;;6104585;28;80448;-51
2023/08/10 09:42:39;;;;;;;4.70;2.90;;;23.60;58.50;;;;;;6111375;28;82039;-50
2023/08/10 09:45:40;;;;;;;5.53;3.55;;;23.60;58.00;;;;;;6116480;28;80612;-52
2023/08/10 09:48:40;;;;;;;5.70;3.58;;;23.60;57.70;;;;;;6104804;28;80650;-52
2023/08/10 09:51:41;;;;;;;9.45;3.13;;;23.60;58.10;;;;;;6117447;28;80426;-53
2023/08/10 09:54:42;;;;;;;4.30;3.17;;;23.60;58.00;;;;;;6112439;28;81914;-54
2023/08/10 09:57:44;;;;;;;5.78;2.95;;;23.60;58.10;;;;;;6110687;28;81155;-53
2023/08/10 10:00:45;;;;;;;4.55;3.10;;;23.70;57.80;;;;;;6113075;28;80976;-53
2023/08/10 10:03:46;;;;;;;6.63;2.90;;;23.70;57.60;;;;;;6118115;28;80665;-51
2023/08/10 10:06:47;;;;;;;5.85;3.28;;;23.70;57.40;;;;;;6104598;28;80922;-54
2023/08/10 10:09:47;;;;;;;5.32;2.58;;;23.70;57.30;;;;;;6121380;28;81256;-54
2023/08/10 10:12:48;;;;;;;4.13;2.65;;;23.70;57.10;;;;;;6125646;28;80803;-51
2023/08/10 10:15:48;;;;;;;3.50;2.70;;;23.70;57.80;;;;;;6122605;28;80380;-53
2023/08/10 10:18:49;;;;;;;4.47;2.67;;;23.70;57.70;;;;;;6104176;28;82199;-53
2023/08/10 10:21:49;;;;;;;3.13;2.70;;;23.70;57.80;;;;;;6103999;28;81093;-54
2023/08/10 10:24:50;;;;;;;3.80;2.40;;;23.70;56.80;;;;;;6109251;28;81619;-53
2023/08/10 10:27:51;;;;;;;4.90;2.42;;;23.70;57.20;;;;;;6111947;28;80530;-54
2023/08/10 10:30:52;;;;;;;3.60;2.78;;;23.80;57.00;;;;;;6114252;28;80382;-53
2023/08/10 10:33:52;;;;;;;2.83;2.30;;;23.80;57.20;;;;;;6117731;28;81557;-57
2023/08/10 10:36:53;;;;;;;4.45;2.65;;;23.80;57.10;;;;;;6115250;28;80545;-56
2023/08/10 10:39:53;;;;;;;4.55;2.55;;;23.80;57.10;;;;;;6109331;28;80461;-57
2023/08/10 10:42:54;;;;;;;4.40;2.92;;;23.80;56.40;;;;;;6113472;28;80529;-56
2023/08/10 10:45:54;;;;;;;4.53;3.13;;;23.80;56.40;;;;;;6125319;28;80865;-57
2023/08/10 10:48:55;;;;;;;5.60;2.58;;;23.80;56.60;;;;;;6140512;28;81614;-57
2023/08/10 10:51:58;;;;;;;5.20;2.50;;;23.80;56.20;;;;;;6116074;28;80540;-60
2023/08/10 10:55:00;;;;;;;3.67;2.72;;;23.80;56.80;;;;;;6103978;28;80650;-60
2023/08/10 10:58:02;;;;;;;6.05;2.72;;;23.80;56.50;;;;;;6105661;28;83555;-61
2023/08/10 11:01:03;;;;;;;4.70;2.70;;;23.80;56.70;;;;;;6118737;28;80579;-62
2023/08/10 11:04:04;;;;;;;5.72;3.28;;;23.70;56.20;;;;;;6127789;28;80738;-61
2023/08/10 11:07:04;;;;;;;6.55;2.83;;;23.70;55.80;;;;;;6117311;28;81582;-62
2023/08/10 11:10:06;;;;;;;3.35;2.40;;;23.70;55.60;;;;;;6120519;28;80607;-68
2023/08/10 11:13:06;;;;;;;7.25;2.75;;;23.70;55.30;;;;;;6131237;28;79942;-65
2023/08/10 11:16:07;;;;;;;12.68;2.70;;;23.70;55.40;;;;;;6117693;28;80470;-69
2023/08/10 11:19:07;;;;;;;15.77;3.58;;;23.70;55.60;;;;;;6123038;28;80153;-68
2023/08/10 11:22:08;;;;;;;11.38;2.75;;;23.70;55.80;;;;;;6130097;28;81597;-62
2023/08/10 11:25:10;;;;;;;7.80;3.00;;;23.60;56.00;;;;;;6128327;28;81908;-67
2023/08/10 11:28:10;;;;;;;8.27;3.17;;;23.60;55.60;;;;;;6132662;28;81778;-54
2023/08/10 11:31:11;;;;;;;9.63;3.20;;;23.70;55.30;;;;;;6126844;28;80884;-56
2023/08/10 11:34:11;;;;;;;20.63;3.42;;;23.60;55.70;;;;;;6098610;28;80965;-57
2023/08/10 11:37:12;;;;;;;26.20;5.68;;;23.70;56.30;;;;;;6122132;28;80685;-56
2023/08/10 11:40:13;;;;;;;15.48;5.00;;;23.70;57.20;;;;;;6113049;28;80880;-57
2023/08/10 11:43:15;;;;;;;11.30;4.97;;;23.70;58.30;;;;;;6105786;28;83190;-52
2023/08/10 11:46:16;;;;;;;23.15;5.22;;;23.70;58.70;;;;;;6105768;28;81179;-56
2023/08/10 11:49:17;;;;;;;12.98;3.78;;;23.70;58.70;;;;;;6123633;28;80710;-52
2023/08/10 11:52:17;;;;;;;8.00;2.92;;;23.80;58.20;;;;;;6144960;28;81018;-55
2023/08/10 11:55:18;;;;;;;6.13;3.20;;;23.80;59.10;;;;;;6132788;28;80116;-55
2023/08/10 11:58:18;;;;;;;7.88;3.30;;;23.90;59.10;;;;;;6108728;28;81197;-56
2023/08/10 12:01:20;;;;;;;5.35;2.80;;;23.90;59.00;;;;;;6109839;28;81928;-55
2023/08/10 12:04:21;;;;;;;6.10;2.83;;;23.90;58.60;;;;;;6127388;28;81232;-57
2023/08/10 12:07:21;;;;;;;7.45;2.90;;;23.90;58.80;;;;;;6120722;28;80774;-57
2023/08/10 12:10:22;;;;;;;5.70;2.88;;;23.90;58.60;;;;;;6121108;28;81539;-55
2023/08/10 12:13:22;;;;;;;9.50;3.05;;;23.90;58.20;;;;;;6126301;28;81637;-55
2023/08/10 12:16:23;;;;;;;5.18;3.25;;;24.00;58.40;;;;;;6129721;28;82269;-56
2023/08/10 12:19:23;;;;;;;12.82;3.17;;;24.00;57.80;;;;;;6126041;28;80701;-57
2023/08/10 12:22:24;;;;;;;5.30;2.88;;;24.00;57.10;;;;;;6103930;28;85006;-64
2023/08/10 12:25:25;;;;;;;7.18;2.10;;;24.00;57.00;;;;;;6120747;28;81889;-64
2023/08/10 12:28:25;;;;;;;5.88;2.72;;;24.10;56.80;;;;;;6137762;28;80972;-65
2023/08/10 12:31:26;;;;;;;6.18;2.53;;;24.10;56.80;;;;;;6121055;28;80391;-67
2023/08/10 12:34:27;;;;;;;5.32;2.92;;;24.10;57.00;;;;;;6109959;28;81466;-65
2023/08/10 12:37:27;;;;;;;12.95;2.78;;;24.10;56.40;;;;;;6119510;28;80929;-64
2023/08/10 12:40:28;;;;;;;12.70;2.63;;;23.90;54.50;;;;;;6123160;28;81801;-66
2023/08/10 12:43:28;;;;;;;5.57;2.45;;;24.00;55.20;;;;;;6122780;28;84010;-63
2023/08/10 12:46:29;;;;;;;9.48;2.65;;;24.10;54.80;;;;;;6127369;28;81388;-60
2023/08/10 12:49:29;;;;;;;7.95;2.88;;;24.10;55.50;;;;;;6121745;28;81609;-62
2023/08/10 12:52:30;;;;;;;6.40;2.90;;;24.10;55.20;;;;;;6126092;28;82392;-64
2023/08/10 12:55:30;;;;;;;18.92;3.10;;;24.10;54.90;;;;;;6106154;28;81250;-63
2023/08/10 12:58:31;;;;;;;5.88;2.47;;;24.10;55.10;;;;;;6102840;28;81862;-63
2023/08/10 13:01:32;;;;;;;5.30;2.83;;;24.10;54.70;;;;;;6106703;28;83932;-63
2023/08/10 13:04:33;;;;;;;7.78;2.67;;;24.10;54.50;;;;;;6125246;28;81772;-64
2023/08/10 13:07:33;;;;;;;6.03;2.38;;;24.10;53.80;;;;;;6127926;28;81651;-64
2023/08/10 13:10:34;;;;;;;5.00;2.80;;;24.00;54.10;;;;;;6123580;28;81634;-62
2023/08/10 13:13:34;;;;;;;6.68;2.80;;;23.90;53.60;;;;;;6120350;28;81799;-64
2023/08/10 13:16:35;;;;;;;7.35;2.90;;;23.90;53.50;;;;;;6123849;28;81674;-66
2023/08/10 13:19:35;;;;;;;5.75;2.80;;;24.00;53.70;;;;;;6122285;28;81399;-65
2023/08/10 13:22:36;;;;;;;5.80;2.83;;;24.00;54.20;;;;;;6132387;28;85178;-65
2023/08/10 13:25:36;;;;;;;8.25;2.97;;;24.00;53.80;;;;;;6107342;28;80595;-66
2023/08/10 13:28:37;;;;;;;5.07;2.78;;;24.00;53.50;;;;;;6119285;28;80547;-66
2023/08/10 13:31:39;;;;;;;9.25;3.13;;;24.00;53.40;;;;;;6131925;28;80840;-73
2023/08/10 13:34:40;;;;;;;6.93;2.83;;;24.10;53.70;;;;;;6114897;28;81291;-72
2023/08/10 13:37:40;;;;;;;4.07;2.58;;;24.10;53.80;;;;;;6128673;28;81121;-65
2023/08/10 13:40:41;;;;;;;9.90;2.75;;;24.10;53.70;;;;;;6117992;28;80243;-64
2023/08/10 13:43:42;;;;;;;6.38;2.97;;;24.10;53.30;;;;;;6114301;28;83890;-62
2023/08/10 13:46:42;;;;;;;8.60;2.53;;;24.10;53.20;;;;;;6117454;28;82352;-63
2023/08/10 13:49:44;;;;;;;15.45;3.50;;;24.10;53.00;;;;;;6122233;28;80887;-62
2023/08/10 13:52:45;;;;;;;7.55;3.15;;;24.10;52.70;;;;;;6125760;28;81445;-61
2023/08/10 13:55:45;;;;;;;14.02;3.13;;;24.10;51.60;;;;;;6121529;28;81444;-63
2023/08/10 13:58:46;;;;;;;6.15;2.67;;;24.00;51.00;;;;;;6103164;28;80542;-62
2023/08/10 14:01:46;;;;;;;3.55;2.40;;;24.00;51.20;;;;;;6117538;28;80597;-61
2023/08/10 14:04:48;;;;;;;12.70;2.78;;;24.00;50.80;;;;;;6119142;28;80593;-63
2023/08/10 14:07:48;;;;;;;5.47;2.60;;;24.00;50.50;;;;;;6106579;28;80459;-61
2023/08/10 14:10:49;;;;;;;4.50;2.88;;;24.10;50.60;;;;;;6111085;28;80681;-61
2023/08/10 14:13:49;;;;;;;5.45;2.40;;;24.00;50.90;;;;;;6103775;28;80507;-62
2023/08/10 14:16:50;;;;;;;10.85;2.95;;;24.10;51.20;;;;;;6111555;28;80979;-62
2023/08/10 14:19:51;;;;;;;4.38;2.60;;;24.10;51.40;;;;;;6120875;28;81105;-63
2023/08/10 14:22:51;;;;;;;5.40;2.55;;;24.10;51.30;;;;;;6114895;28;80355;-62
2023/08/10 14:25:52;;;;;;;4.80;2.72;;;24.20;51.40;;;;;;6131369;28;80879;-65
2023/08/10 14:28:53;;;;;;;4.22;2.60;;;24.20;51.30;;;;;;6119715;28;81941;-64
2023/08/10 14:31:53;;;;;;;4.45;2.22;;;24.20;50.50;;;;;;6124768;28;82837;-68
2023/08/10 14:34:54;;;;;;;5.00;2.40;;;24.30;51.00;;;;;;6122066;28;80553;-69
2023/08/10 14:37:55;;;;;;;4.22;2.50;;;24.20;51.50;;;;;;6119905;28;82849;-70
2023/08/10 14:40:55;;;;;;;4.03;2.67;;;24.20;51.70;;;;;;6120020;28;80789;-68
2023/08/10 14:43:56;;;;;;;4.38;2.40;;;24.20;51.70;;;;;;6126146;28;80592;-68
2023/08/10 14:46:56;;;;;;;5.43;2.95;;;24.10;51.00;;;;;;6115043;28;81308;-69
2023/08/10 14:49:57;;;;;;;6.38;2.58;;;24.10;50.90;;;;;;6129066;28;80759;-68
2023/08/10 14:52:57;;;;;;;3.95;2.40;;;24.00;50.90;;;;;;6132688;28;80687;-68
2023/08/10 14:55:58;;;;;;;5.25;2.42;;;24.10;51.00;;;;;;6119639;28;80858;-76
2023/08/10 14:58:59;;;;;;;4.30;2.80;;;24.10;51.00;;;;;;6122372;28;81802;-66
2023/08/10 15:01:59;;;;;;;3.78;2.40;;;24.10;51.30;;;;;;6130100;28;81124;-70
2023/08/10 15:05:00;;;;;;;7.07;2.83;;;24.10;51.40;;;;;;6143174;28;80439;-65
2023/08/10 15:08:00;;;;;;;4.13;2.83;;;24.10;51.40;;;;;;6131500;28;81295;-59
2023/08/10 15:11:01;;;;;;;5.43;2.95;;;24.10;51.20;;;;;;6148636;28;84780;-59
2023/08/10 15:14:02;;;;;;;5.38;3.13;;;24.10;50.80;;;;;;6122578;28;81437;-56
2023/08/10 15:17:02;;;;;;;5.38;3.08;;;24.00;51.00;;;;;;6112957;28;81732;-55
2023/08/10 15:20:03;;;;;;;6.13;2.70;;;24.00;51.10;;;;;;6113694;28;81025;-59
2023/08/10 15:23:04;;;;;;;7.32;2.90;;;24.00;50.90;;;;;;6116130;28;80733;-59
2023/08/10 15:26:05;;;;;;;4.35;2.38;;;24.00;51.90;;;;;;6132766;28;80953;-60
2023/08/10 15:29:07;;;;;;;4.88;2.80;;;24.00;51.80;;;;;;6127654;28;81333;-60
2023/08/10 15:32:08;;;;;;;5.15;2.60;;;24.00;51.80;;;;;;6130543;28;80823;-57
2023/08/10 15:35:09;;;;;;;4.38;2.58;;;24.00;51.30;;;;;;6118685;28;80589;-57
2023/08/10 15:38:10;;;;;;;6.57;2.85;;;24.00;51.20;;;;;;6130967;28;81110;-59